Time;durP1;ratioP1;P1;durP2;ratioP2;P2;SDS_P1;SDS_P2;PMS_P1;PMS_P2;Temp;Humidity;BMP_temperature;BMP_pressure;BME280_temperature;BME280_humidity;BME280_pressure;Samples;Min_cycle;Max_cycle;Signal;HPM_P1;HPM_P2
2022/12/07 00:01:08;;;;;;;8.55;1.45;;;4.30;99.90;;;;;;5087395;28;20115;-65
2022/12/07 00:03:34;;;;;;;5.75;1.50;;;4.30;99.90;;;;;;5083101;28;20032;-64
2022/12/07 00:06:01;;;;;;;5.30;1.40;;;4.30;99.90;;;;;;5067262;28;20052;-63
2022/12/07 00:08:26;;;;;;;4.78;1.30;;;4.30;99.90;;;;;;5062072;28;20028;-64
2022/12/07 00:10:52;;;;;;;4.45;1.30;;;4.30;99.90;;;;;;5084818;28;20369;-64
2022/12/07 00:13:18;;;;;;;9.02;1.50;;;4.20;99.90;;;;;;5087494;28;20039;-64
2022/12/07 00:15:44;;;;;;;6.93;1.60;;;4.20;99.90;;;;;;5088558;28;20317;-64
2022/12/07 00:18:09;;;;;;;5.85;1.80;;;4.20;99.90;;;;;;5070486;28;20040;-65
2022/12/07 00:20:35;;;;;;;7.03;1.65;;;4.20;99.90;;;;;;5058776;28;20051;-64
2022/12/07 00:23:01;;;;;;;7.07;1.58;;;4.20;99.90;;;;;;5088984;28;20036;-64
2022/12/07 00:25:26;;;;;;;3.13;1.25;;;4.10;99.90;;;;;;5086947;28;20036;-64
2022/12/07 00:27:56;;;;;;;8.57;1.70;;;4.10;99.90;;;;;;5079416;28;20061;-64
2022/12/07 00:30:22;;;;;;;7.18;1.58;;;4.10;99.90;;;;;;5074873;28;20044;-64
2022/12/07 00:32:47;;;;;;;3.15;1.20;;;4.10;99.90;;;;;;5078582;28;20036;-64
2022/12/07 00:35:13;;;;;;;5.50;1.60;;;4.10;99.90;;;;;;5068267;28;20043;-63
2022/12/07 00:37:39;;;;;;;7.97;1.70;;;4.10;99.90;;;;;;5065473;28;20465;-63
2022/12/07 00:40:05;;;;;;;9.65;1.90;;;4.10;99.90;;;;;;5089949;28;20036;-64
2022/12/07 00:42:31;;;;;;;6.90;1.67;;;4.00;99.90;;;;;;5086452;28;20185;-64
2022/12/07 00:44:56;;;;;;;9.10;1.80;;;4.00;99.90;;;;;;5065583;28;20122;-64
2022/12/07 00:47:22;;;;;;;6.00;1.15;;;4.10;99.90;;;;;;5067620;28;20040;-64
2022/12/07 00:49:48;;;;;;;8.68;1.63;;;4.00;99.90;;;;;;5080050;28;20035;-64
2022/12/07 00:52:13;;;;;;;7.97;1.80;;;4.00;99.90;;;;;;5087425;28;20040;-64
2022/12/07 00:54:40;;;;;;;5.45;1.58;;;4.00;99.90;;;;;;5080477;28;20449;-65
2022/12/07 00:57:06;;;;;;;5.80;1.50;;;4.00;99.90;;;;;;5067399;28;20028;-64
2022/12/07 00:59:31;;;;;;;10.40;1.38;;;4.00;99.90;;;;;;5064410;28;20107;-63
2022/12/07 01:01:57;;;;;;;8.90;1.60;;;4.00;99.90;;;;;;5090477;28;20067;-64
2022/12/07 01:04:23;;;;;;;8.07;1.50;;;4.00;99.90;;;;;;5065677;28;20036;-64
2022/12/07 01:06:48;;;;;;;7.45;1.55;;;4.00;99.90;;;;;;5084165;28;20043;-64
2022/12/07 01:09:14;;;;;;;5.93;1.75;;;4.00;99.90;;;;;;5088954;28;20036;-64
2022/12/07 01:11:39;;;;;;;8.88;1.50;;;4.00;99.90;;;;;;5071301;28;20070;-64
2022/12/07 01:14:05;;;;;;;14.50;1.50;;;4.00;99.90;;;;;;5081822;28;20176;-64
2022/12/07 01:16:32;;;;;;;7.25;1.88;;;4.00;99.90;;;;;;5086837;28;20035;-64
2022/12/07 01:19:00;;;;;;;6.95;1.60;;;4.00;99.90;;;;;;5051693;28;20032;-64
2022/12/07 01:21:37;;;;;;;5.90;1.40;;;4.00;99.90;;;;;;5057463;28;20105;-63
2022/12/07 01:24:09;;;;;;;8.07;1.55;;;4.00;99.90;;;;;;5068626;28;20535;-63
2022/12/07 01:26:35;;;;;;;9.38;1.60;;;4.00;99.90;;;;;;5080457;28;20071;-63
2022/12/07 01:29:00;;;;;;;7.45;1.38;;;4.00;99.90;;;;;;5064054;28;20040;-63
2022/12/07 01:31:27;;;;;;;8.68;1.70;;;4.00;99.90;;;;;;5086580;28;20127;-64
2022/12/07 01:33:55;;;;;;;3.78;1.20;;;4.00;99.90;;;;;;5063516;28;20047;-64
2022/12/07 01:36:31;;;;;;;10.85;1.50;;;4.00;99.90;;;;;;5067844;28;20068;-63
2022/12/07 01:39:00;;;;;;;7.72;1.60;;;3.90;99.90;;;;;;5074081;28;20032;-63
2022/12/07 01:41:29;;;;;;;3.38;1.27;;;3.90;99.90;;;;;;5089910;28;20039;-63
2022/12/07 01:44:20;;;;;;;7.95;1.42;;;3.90;99.90;;;;;;5087492;28;20040;-63
2022/12/07 01:46:55;;;;;;;8.68;1.60;;;3.90;99.90;;;;;;5084244;28;20076;-64
2022/12/07 01:49:39;;;;;;;8.82;1.95;;;3.80;99.90;;;;;;5069048;28;20101;-64
2022/12/07 01:52:23;;;;;;;8.80;1.48;;;3.80;99.90;;;;;;5064662;28;20052;-64
2022/12/07 01:54:53;;;;;;;4.65;1.48;;;3.80;99.90;;;;;;5066626;28;20126;-64
2022/12/07 01:57:20;;;;;;;8.88;1.65;;;3.80;99.90;;;;;;5067952;28;20036;-64
2022/12/07 01:59:48;;;;;;;5.55;1.00;;;3.80;99.90;;;;;;5047426;28;20487;-64
2022/12/07 02:02:20;;;;;;;4.05;1.40;;;3.80;99.90;;;;;;5085865;28;20039;-64
2022/12/07 02:04:46;;;;;;;4.90;1.20;;;3.80;99.90;;;;;;5078414;28;20459;-64
2022/12/07 02:07:12;;;;;;;11.52;1.73;;;3.70;99.90;;;;;;5070268;28;20083;-64
2022/12/07 02:09:38;;;;;;;8.52;1.67;;;3.80;99.90;;;;;;5057337;28;20482;-64
2022/12/07 02:12:04;;;;;;;7.25;1.50;;;3.70;99.90;;;;;;5061796;28;20051;-63
2022/12/07 02:14:29;;;;;;;10.23;1.70;;;3.70;99.90;;;;;;5068024;28;20465;-63
2022/12/07 02:17:13;;;;;;;8.52;1.58;;;3.70;99.90;;;;;;5074672;28;20075;-64
2022/12/07 02:19:50;;;;;;;10.38;1.80;;;3.70;99.90;;;;;;5062992;28;20071;-64
2022/12/07 02:22:50;;;;;;;8.48;1.30;;;3.70;99.90;;;;;;5053852;28;20047;-63
2022/12/07 02:25:28;;;;;;;11.65;1.67;;;3.70;99.90;;;;;;5077471;28;20040;-63
2022/12/07 02:28:06;;;;;;;8.43;1.63;;;3.70;99.90;;;;;;5076246;28;20040;-63
2022/12/07 02:30:34;;;;;;;10.13;1.58;;;3.70;99.90;;;;;;5085801;28;20063;-64
2022/12/07 02:33:25;;;;;;;5.07;1.20;;;3.70;99.90;;;;;;5089743;28;20085;-63
2022/12/07 02:35:59;;;;;;;8.07;1.50;;;3.70;99.90;;;;;;5069462;28;20050;-64
2022/12/07 02:38:38;;;;;;;5.35;1.52;;;3.60;99.90;;;;;;5062233;28;20040;-64
2022/12/07 02:41:18;;;;;;;6.88;1.30;;;3.60;99.90;;;;;;5083374;28;20127;-64
2022/12/07 02:43:57;;;;;;;5.90;1.45;;;3.60;99.90;;;;;;5070314;28;20040;-64
2022/12/07 02:46:32;;;;;;;8.10;1.58;;;3.50;99.90;;;;;;5069349;28;20119;-64
2022/12/07 02:48:59;;;;;;;5.10;1.90;;;3.50;99.90;;;;;;5087898;28;20097;-64
2022/12/07 02:51:25;;;;;;;8.00;1.45;;;3.50;99.90;;;;;;5086566;28;20557;-64
2022/12/07 02:53:51;;;;;;;7.10;1.50;;;3.50;99.90;;;;;;5045921;28;20470;-64
2022/12/07 02:56:25;;;;;;;8.70;1.60;;;3.50;99.90;;;;;;5061499;28;20040;-64
2022/12/07 02:59:00;;;;;;;6.25;1.10;;;3.50;99.90;;;;;;5063806;28;20075;-64
2022/12/07 03:01:31;;;;;;;10.05;1.63;;;3.50;99.90;;;;;;5063537;28;20058;-63
2022/12/07 03:04:20;;;;;;;9.77;1.60;;;3.50;99.90;;;;;;5082239;28;20040;-63
2022/12/07 03:06:56;;;;;;;7.30;1.20;;;3.50;99.90;;;;;;5038772;28;20290;-63
2022/12/07 03:09:44;;;;;;;6.65;1.38;;;3.60;99.90;;;;;;5062950;28;20047;-63
2022/12/07 03:12:18;;;;;;;6.22;1.20;;;3.60;99.90;;;;;;5085039;28;20051;-63
2022/12/07 03:14:59;;;;;;;10.00;1.63;;;3.60;99.90;;;;;;5085659;28;20490;-63
2022/12/07 03:17:29;;;;;;;10.60;1.60;;;3.70;99.90;;;;;;5092345;28;20044;-63
2022/12/07 03:19:58;;;;;;;7.18;1.30;;;3.70;99.90;;;;;;5066033;28;20051;-63
2022/12/07 03:22:29;;;;;;;9.57;1.70;;;3.70;99.90;;;;;;5089469;28;20051;-65
2022/12/07 03:24:58;;;;;;;7.53;1.58;;;3.70;99.90;;;;;;5073587;28;20558;-64
2022/12/07 03:27:28;;;;;;;5.35;1.30;;;3.80;99.90;;;;;;5083956;28;20040;-64
2022/12/07 03:30:21;;;;;;;8.40;1.60;;;3.80;99.90;;;;;;5067063;28;20064;-64
2022/12/07 03:33:05;;;;;;;9.88;1.40;;;3.80;99.90;;;;;;5083628;28;20052;-64
2022/12/07 03:35:36;;;;;;;4.88;1.13;;;3.70;99.90;;;;;;5087321;28;20063;-63
2022/12/07 03:38:19;;;;;;;5.85;1.60;;;3.80;99.90;;;;;;5073427;28;20078;-64
2022/12/07 03:40:50;;;;;;;;;;;3.80;99.90;;;;;;5066609;28;20040;-63
2022/12/07 03:43:18;;;;;;;4.80;1.15;;;3.70;99.90;;;;;;5086693;28;20288;-63
2022/12/07 03:45:54;;;;;;;4.57;0.95;;;3.70;99.90;;;;;;5064689;28;20078;-63
2022/12/07 03:48:32;;;;;;;4.70;1.23;;;3.70;99.90;;;;;;5076309;28;20082;-66
2022/12/07 03:51:13;;;;;;;5.45;1.02;;;3.70;99.90;;;;;;5062089;28;20558;-63
2022/12/07 03:53:58;;;;;;;5.88;1.10;;;3.70;99.90;;;;;;5076754;28;20919;-63
2022/12/07 03:56:25;;;;;;;5.47;1.25;;;3.60;99.90;;;;;;5064591;28;21196;-62
2022/12/07 03:58:52;;;;;;;7.10;1.10;;;3.60;99.90;;;;;;5076998;28;20146;-63
2022/12/07 04:01:18;;;;;;;6.40;1.15;;;3.60;99.90;;;;;;5090682;28;20047;-63
2022/12/07 04:03:44;;;;;;;4.82;1.10;;;3.60;99.90;;;;;;5066674;28;20040;-63
2022/12/07 04:06:09;;;;;;;8.35;1.27;;;3.60;99.90;;;;;;5061836;28;20040;-63
2022/12/07 04:08:35;;;;;;;9.60;1.30;;;3.60;99.90;;;;;;5066203;28;20039;-63
2022/12/07 04:11:01;;;;;;;7.82;1.23;;;3.60;99.90;;;;;;5095987;28;20044;-64
2022/12/07 04:13:27;;;;;;;7.40;1.42;;;3.60;99.90;;;;;;5092576;28;20036;-64
2022/12/07 04:15:52;;;;;;;3.78;0.88;;;3.60;99.90;;;;;;5085486;28;20035;-63
2022/12/07 04:18:18;;;;;;;7.88;1.02;;;3.60;99.90;;;;;;5070370;28;20460;-63
2022/12/07 04:20:44;;;;;;;8.30;1.50;;;3.60;99.90;;;;;;5090639;28;20078;-63
2022/12/07 04:23:09;;;;;;;7.65;1.45;;;3.50;99.90;;;;;;5084925;28;20024;-64
2022/12/07 04:25:35;;;;;;;5.88;1.08;;;3.50;99.90;;;;;;5091473;28;20036;-65
2022/12/07 04:28:00;;;;;;;6.63;0.98;;;3.50;99.90;;;;;;5092538;28;20535;-65
2022/12/07 04:30:27;;;;;;;5.18;1.02;;;3.50;99.90;;;;;;5091044;28;20032;-63
2022/12/07 04:32:52;;;;;;;7.57;1.30;;;3.50;99.90;;;;;;5076868;28;20029;-63
2022/12/07 04:35:18;;;;;;;8.75;1.10;;;3.40;99.90;;;;;;5074328;28;20044;-64
2022/12/07 04:37:44;;;;;;;7.57;1.35;;;3.40;99.90;;;;;;5079816;28;20485;-63
2022/12/07 04:40:11;;;;;;;5.25;0.98;;;3.40;99.90;;;;;;5063662;28;20036;-65
2022/12/07 04:42:37;;;;;;;6.18;1.33;;;3.40;99.90;;;;;;5068577;28;20114;-63
2022/12/07 04:45:03;;;;;;;4.22;1.08;;;3.40;99.90;;;;;;5081810;28;20040;-62
2022/12/07 04:47:29;;;;;;;6.38;1.00;;;3.40;99.90;;;;;;5065559;28;20490;-62
2022/12/07 04:49:54;;;;;;;3.45;1.25;;;3.40;99.90;;;;;;5075022;28;20108;-63
2022/12/07 04:52:20;;;;;;;7.50;1.30;;;3.40;99.90;;;;;;5073431;28;20497;-63
2022/12/07 04:54:46;;;;;;;4.10;1.10;;;3.40;99.90;;;;;;5088667;28;20509;-65
2022/12/07 04:57:11;;;;;;;4.28;0.75;;;3.40;99.90;;;;;;5068783;28;20044;-63
2022/12/07 04:59:37;;;;;;;6.47;1.00;;;3.40;99.90;;;;;;5088791;28;20032;-64
2022/12/07 05:02:02;;;;;;;11.95;1.67;;;3.30;99.90;;;;;;5079515;28;20409;-64
2022/12/07 05:04:28;;;;;;;4.10;1.20;;;3.30;99.90;;;;;;5064370;28;20043;-64
2022/12/07 05:06:54;;;;;;;7.22;1.35;;;3.30;99.90;;;;;;5087596;28;20099;-64
2022/12/07 05:09:20;;;;;;;7.60;1.10;;;3.30;99.90;;;;;;5091616;28;20097;-64
2022/12/07 05:11:45;;;;;;;8.88;1.48;;;3.30;99.90;;;;;;5088101;28;20123;-65
2022/12/07 05:14:20;;;;;;;10.07;1.35;;;3.30;99.90;;;;;;5084368;28;20558;-64
2022/12/07 05:16:49;;;;;;;5.68;1.23;;;3.30;99.90;;;;;;5069872;28;20043;-63
2022/12/07 05:19:15;;;;;;;5.07;1.20;;;3.30;99.90;;;;;;5070416;28;20036;-64
2022/12/07 05:21:40;;;;;;;7.82;1.25;;;3.30;99.90;;;;;;5089663;28;20055;-65
2022/12/07 05:24:07;;;;;;;9.98;0.95;;;3.30;99.90;;;;;;5071244;28;20052;-62
2022/12/07 05:26:34;;;;;;;9.07;1.55;;;3.20;99.90;;;;;;5070557;28;20552;-63
2022/12/07 05:28:59;;;;;;;5.70;1.30;;;3.20;99.90;;;;;;5082994;28;20036;-62
2022/12/07 05:31:26;;;;;;;7.75;1.25;;;3.20;99.90;;;;;;5081178;28;20222;-62
2022/12/07 05:33:52;;;;;;;5.88;1.00;;;3.20;99.90;;;;;;5085185;28;20028;-64
2022/12/07 05:36:18;;;;;;;5.35;1.00;;;3.20;99.90;;;;;;5073170;28;20043;-63
2022/12/07 05:38:44;;;;;;;6.32;1.00;;;3.20;99.90;;;;;;5080503;28;20490;-62
2022/12/07 05:42:11;;;;;;;6.45;1.10;;;3.20;99.90;;;;;;5083911;28;20081;-64
2022/12/07 05:43:59;;;;;;;7.93;1.42;;;3.20;99.90;;;;;;5064563;28;20048;-64
2022/12/07 05:46:25;;;;;;;6.50;1.27;;;3.20;99.90;;;;;;5098174;22;20118;-77
2022/12/07 05:48:51;;;;;;;5.80;1.15;;;3.10;99.90;;;;;;5048039;28;20043;-75
2022/12/07 05:51:17;;;;;;;7.15;1.40;;;3.10;99.90;;;;;;5040313;28;20119;-75
2022/12/07 05:53:43;;;;;;;3.70;1.13;;;3.10;99.90;;;;;;5039019;28;20036;-75
2022/12/07 05:56:08;;;;;;;6.85;0.90;;;3.10;99.90;;;;;;5040290;28;20037;-75
2022/12/07 06:01:18;;;;;;;8.38;1.33;;;3.10;99.90;;;;;;5039411;28;20048;-75
2022/12/07 06:03:44;;;;;;;7.30;1.20;;;3.00;99.90;;;;;;5041874;28;20423;-75
2022/12/07 06:06:10;;;;;;;6.90;1.05;;;3.00;99.90;;;;;;5026155;28;20485;-76
2022/12/07 06:08:35;;;;;;;10.23;1.25;;;3.00;99.90;;;;;;5037694;28;20052;-75
2022/12/07 06:13:45;;;;;;;9.07;1.25;;;3.10;99.90;;;;;;5031829;28;20048;-75
2022/12/07 06:16:11;;;;;;;5.80;1.35;;;3.10;99.90;;;;;;5041350;28;20040;-77
2022/12/07 06:18:36;;;;;;;4.45;1.20;;;3.10;99.90;;;;;;5044607;28;20036;-76
2022/12/07 06:21:02;;;;;;;7.15;1.05;;;3.10;99.90;;;;;;5029727;28;20075;-76
2022/12/07 06:23:27;;;;;;;6.72;1.13;;;3.10;99.90;;;;;;5018061;28;20518;-76
2022/12/07 06:25:53;;;;;;;5.78;1.27;;;3.10;99.90;;;;;;5026085;28;20060;-77
2022/12/07 06:28:19;;;;;;;9.07;1.48;;;3.20;99.90;;;;;;5040501;28;20072;-76
2022/12/07 06:30:44;;;;;;;5.20;1.10;;;3.20;99.90;;;;;;5028160;28;20176;-76
2022/12/07 06:33:10;;;;;;;8.00;1.30;;;3.20;99.90;;;;;;5050362;28;20151;-76
2022/12/07 06:35:35;;;;;;;9.82;1.27;;;3.20;99.90;;;;;;5027220;28;20048;-76
2022/12/07 06:38:01;;;;;;;8.10;1.40;;;3.20;99.90;;;;;;5018882;28;20041;-76
2022/12/07 06:40:27;;;;;;;7.60;1.27;;;3.30;99.90;;;;;;5023170;28;20030;-76
2022/12/07 06:42:53;;;;;;;9.10;1.63;;;3.30;99.90;;;;;;5020998;28;20128;-76
2022/12/07 06:45:18;;;;;;;9.75;1.45;;;3.30;99.90;;;;;;5032658;28;20480;-77
2022/12/07 06:47:44;;;;;;;6.97;1.13;;;3.40;99.90;;;;;;5042130;28;20127;-76
2022/12/07 06:50:09;;;;;;;5.47;1.30;;;3.40;99.90;;;;;;5021151;28;20045;-76
2022/12/07 06:52:35;;;;;;;10.57;1.40;;;3.40;99.90;;;;;;5044291;28;20071;-75
2022/12/07 06:55:01;;;;;;;7.32;1.65;;;3.40;99.90;;;;;;5010279;28;20128;-76
2022/12/07 06:57:26;;;;;;;7.85;1.35;;;3.40;99.90;;;;;;5022863;28;20033;-76
2022/12/07 06:59:52;;;;;;;6.68;1.45;;;3.40;99.90;;;;;;5024068;28;20029;-76
2022/12/07 07:02:17;;;;;;;5.72;1.02;;;3.40;99.90;;;;;;5028556;28;20045;-76
2022/12/07 07:04:43;;;;;;;5.80;1.23;;;3.40;99.90;;;;;;5032337;28;20041;-76
2022/12/07 07:07:09;;;;;;;8.05;1.42;;;3.40;99.90;;;;;;5029283;28;20088;-74
2022/12/07 07:09:34;;;;;;;5.93;1.30;;;3.30;99.90;;;;;;5032777;28;20507;-76
2022/12/07 07:12:00;;;;;;;6.75;1.40;;;3.40;99.90;;;;;;5030188;28;20053;-74
2022/12/07 07:14:26;;;;;;;8.10;1.05;;;3.40;99.90;;;;;;5034523;28;20044;-76
2022/12/07 07:16:51;;;;;;;5.32;1.10;;;3.40;99.90;;;;;;5032148;28;20037;-74
2022/12/07 07:19:17;;;;;;;4.22;1.02;;;3.30;99.90;;;;;;5042538;28;20045;-74
2022/12/07 07:21:43;;;;;;;8.45;1.55;;;3.30;99.90;;;;;;5033070;28;20043;-76
2022/12/07 07:24:08;;;;;;;9.07;1.25;;;3.30;99.90;;;;;;5010077;28;20044;-74
2022/12/07 07:26:34;;;;;;;7.05;1.52;;;3.30;99.90;;;;;;5022374;28;20131;-76
2022/12/07 07:28:59;;;;;;;2.88;0.80;;;3.30;99.90;;;;;;5028899;28;20041;-76
2022/12/07 07:31:25;;;;;;;4.45;0.98;;;3.30;99.90;;;;;;5021650;28;20131;-76
2022/12/07 07:33:51;;;;;;;5.00;0.90;;;3.30;99.90;;;;;;5031908;28;20056;-77
2022/12/07 07:36:16;;;;;;;4.82;1.00;;;3.30;99.90;;;;;;5010419;28;20465;-75
2022/12/07 07:38:42;;;;;;;6.80;1.27;;;3.30;99.90;;;;;;5025061;28;20082;-77
2022/12/07 07:41:08;;;;;;;3.75;0.95;;;3.30;99.90;;;;;;5009787;28;20562;-77
2022/12/07 07:43:33;;;;;;;5.15;0.93;;;3.30;99.90;;;;;;5031034;28;20037;-76
2022/12/07 07:45:59;;;;;;;4.20;1.10;;;3.30;99.90;;;;;;5028979;28;20040;-77
2022/12/07 07:48:25;;;;;;;4.88;1.02;;;3.30;99.90;;;;;;5031673;28;20036;-77
2022/12/07 07:50:51;;;;;;;4.50;1.15;;;3.20;99.90;;;;;;5020011;28;20045;-77
2022/12/07 07:53:16;;;;;;;6.18;1.30;;;3.20;99.90;;;;;;5031282;28;20083;-77
2022/12/07 07:55:51;;;;;;;6.03;1.35;;;3.30;99.90;;;;;;5029004;28;20064;-76
2022/12/07 07:58:16;;;;;;;4.40;1.13;;;3.30;99.90;;;;;;5039264;28;20493;-77
2022/12/07 08:00:42;;;;;;;5.32;1.00;;;3.30;99.90;;;;;;5025853;28;20040;-77
2022/12/07 08:03:07;;;;;;;6.53;1.40;;;3.30;99.90;;;;;;5029360;28;20500;-77
2022/12/07 08:05:33;;;;;;;6.53;1.17;;;3.30;99.90;;;;;;5024630;28;20045;-73
2022/12/07 08:07:58;;;;;;;6.63;1.48;;;3.40;99.90;;;;;;5044399;28;20068;-77
2022/12/07 08:10:24;;;;;;;6.20;1.30;;;3.40;99.90;;;;;;5033986;28;20032;-76
2022/12/07 08:15:37;;;;;;;6.57;1.30;;;3.50;99.90;;;;;;5033582;28;20586;-77
2022/12/07 08:18:03;;;;;;;6.63;1.30;;;3.50;99.90;;;;;;5036753;28;20392;-77
2022/12/07 08:20:30;;;;;;;3.88;1.27;;;3.60;99.90;;;;;;5035569;28;20036;-76
2022/12/07 08:22:57;;;;;;;2.75;1.08;;;3.50;99.90;;;;;;5035451;28;20408;-76
2022/12/07 08:25:22;;;;;;;4.47;1.15;;;3.60;99.90;;;;;;5035305;28;20036;-77
2022/12/07 08:27:50;;;;;;;8.98;1.70;;;3.50;99.90;;;;;;5039453;28;20581;-77
2022/12/07 08:30:15;;;;;;;3.00;1.17;;;3.40;99.90;;;;;;5031273;28;20056;-77
2022/12/07 08:32:41;;;;;;;7.25;1.08;;;3.40;99.90;;;;;;5033905;28;20048;-77
2022/12/07 08:35:08;;;;;;;3.78;1.10;;;3.40;99.90;;;;;;5029868;28;20041;-75
2022/12/07 08:37:33;;;;;;;5.05;0.98;;;3.40;99.90;;;;;;5033305;28;20042;-77
2022/12/07 08:39:59;;;;;;;5.40;1.20;;;3.40;99.90;;;;;;5035856;28;20047;-76
2022/12/07 08:42:29;;;;;;;5.60;1.15;;;3.30;99.90;;;;;;5024781;28;20112;-77
2022/12/07 08:44:57;;;;;;;7.55;1.20;;;3.30;99.90;;;;;;5034140;28;20143;-77
2022/12/07 08:47:24;;;;;;;7.82;1.45;;;3.30;99.90;;;;;;5030091;28;20152;-76
2022/12/07 08:49:52;;;;;;;7.55;1.20;;;3.30;99.90;;;;;;5026902;28;20042;-76
2022/12/07 08:52:18;;;;;;;7.47;1.40;;;3.30;99.90;;;;;;5032138;28;20037;-76
2022/12/07 08:54:44;;;;;;;5.72;1.40;;;3.30;99.90;;;;;;5022919;28;20756;-76
2022/12/07 08:57:11;;;;;;;9.43;1.60;;;3.30;99.90;;;;;;5028600;28;20025;-75
2022/12/07 09:03:06;;;;;;;7.80;1.92;;;3.30;99.90;;;;;;5158885;27;20334;-76
2022/12/07 09:05:34;;;;;;;5.35;1.27;;;3.40;99.90;;;;;;5151878;27;20047;-78
2022/12/07 09:13:10;;;;;;;10.00;2.00;;;3.60;99.90;;;;;;5677385;22;20496;-76
2022/12/07 09:15:35;;;;;;;10.40;1.85;;;3.70;99.90;;;;;;5066572;28;20040;-77
2022/12/07 09:18:01;;;;;;;5.10;1.60;;;3.70;99.90;;;;;;5046200;28;20510;-76
2022/12/07 09:25:37;;;;;;;7.13;1.50;;;3.70;99.90;;;;;;5745252;22;20067;-77
2022/12/07 09:28:03;;;;;;;7.15;1.42;;;3.70;99.90;;;;;;5059839;28;20040;-77
2022/12/07 09:30:29;;;;;;;6.13;1.70;;;3.60;99.90;;;;;;5067670;28;20049;-81
2022/12/07 09:32:56;;;;;;;7.65;1.50;;;3.60;99.90;;;;;;5044062;28;20458;-77
2022/12/07 09:37:58;;;;;;;8.07;1.67;;;3.60;99.90;;;;;;5583841;22;20063;-78
2022/12/07 09:40:24;;;;;;;4.65;1.15;;;3.60;99.90;;;;;;5059286;28;20036;-78
2022/12/07 09:42:53;;;;;;;9.55;1.40;;;3.60;99.90;;;;;;5047353;28;20052;-80
2022/12/07 09:45:29;;;;;;;10.70;1.40;;;3.80;99.90;;;;;;5067251;28;20052;-79
2022/12/07 09:47:59;;;;;;;8.55;1.60;;;3.70;99.90;;;;;;5051294;28;20487;-82
2022/12/07 09:50:27;;;;;;;7.43;1.50;;;3.80;99.90;;;;;;5057661;28;20047;-78
2022/12/07 09:53:09;;;;;;;7.80;1.77;;;4.00;99.90;;;;;;5088771;28;20120;-77
2022/12/07 09:55:36;;;;;;;8.27;1.50;;;4.10;99.90;;;;;;5064662;28;20119;-76
2022/12/07 09:58:39;;;;;;;7.18;1.70;;;4.20;99.90;;;;;;5074924;28;20354;-76
2022/12/07 10:01:08;;;;;;;7.68;1.25;;;4.40;99.90;;;;;;5043138;28;20449;-78
2022/12/07 10:03:48;;;;;;;15.50;1.70;;;4.40;99.90;;;;;;5064053;28;20044;-77
2022/12/07 10:06:14;;;;;;;7.25;1.65;;;4.50;99.90;;;;;;5068547;28;20111;-77
2022/12/07 10:08:41;;;;;;;7.30;1.45;;;4.50;99.90;;;;;;5069986;28;20111;-78
2022/12/07 10:11:10;;;;;;;7.75;1.50;;;4.60;99.90;;;;;;5062920;28;20040;-77
2022/12/07 10:13:40;;;;;;;9.10;2.67;;;5.20;99.90;;;;;;5059403;28;20047;-78
2022/12/07 10:16:25;;;;;;;11.45;5.43;;;4.20;99.90;;;;;;5052785;28;20043;-77
2022/12/07 10:18:51;;;;;;;8.63;2.65;;;4.70;99.90;;;;;;5031060;28;20040;-78
2022/12/07 10:21:25;;;;;;;6.18;1.80;;;4.70;99.90;;;;;;5051572;28;20048;-78
2022/12/07 10:24:19;;;;;;;9.60;1.60;;;4.70;99.90;;;;;;5036362;28;20515;-78
2022/12/07 10:26:48;;;;;;;14.40;1.70;;;5.80;99.90;;;;;;5035532;28;20033;-79
2022/12/07 10:29:20;;;;;;;5.07;1.48;;;4.90;99.90;;;;;;5037458;28;20033;-78
2022/12/07 10:31:57;;;;;;;7.75;1.73;;;4.70;99.90;;;;;;5069052;28;20044;-80
2022/12/07 10:34:24;;;;;;;9.05;1.90;;;4.70;99.90;;;;;;5036369;28;20092;-78
2022/12/07 10:36:53;;;;;;;10.73;2.08;;;4.70;99.90;;;;;;5038206;28;20037;-82
2022/12/07 10:39:23;;;;;;;10.43;2.22;;;4.70;99.90;;;;;;5033528;28;20032;-78
2022/12/07 10:42:03;;;;;;;11.48;7.05;;;4.70;99.90;;;;;;5038484;28;20039;-78
2022/12/07 10:44:31;;;;;;;7.90;3.45;;;4.70;99.90;;;;;;5030110;28;20039;-77
2022/12/07 10:47:22;;;;;;;9.88;3.70;;;4.60;99.90;;;;;;5051453;28;20051;-79
2022/12/07 10:50:06;;;;;;;11.52;3.47;;;4.80;99.90;;;;;;5034927;28;20033;-77
2022/12/07 10:53:20;;;;;;;9.27;3.20;;;4.90;99.90;;;;;;5038196;28;20458;-82
2022/12/07 10:55:58;;;;;;;7.97;4.18;;;4.90;99.90;;;;;;5036642;28;20458;-79
2022/12/07 10:58:40;;;;;;;24.58;15.52;;;5.00;99.90;;;;;;5051148;28;20044;-79
2022/12/07 11:01:34;;;;;;;17.15;7.93;;;5.00;99.90;;;;;;5050841;28;20063;-79
2022/12/07 11:04:44;;;;;;;8.25;4.60;;;5.00;99.90;;;;;;5048202;28;20056;-81
2022/12/07 11:07:27;;;;;;;8.30;2.00;;;5.10;99.90;;;;;;5034626;28;20044;-80
2022/12/07 11:10:15;;;;;;;12.10;5.85;;;5.10;99.90;;;;;;5028641;28;20223;-80
2022/12/07 11:12:51;;;;;;;7.47;2.10;;;5.30;99.90;;;;;;5026054;28;20493;-79
2022/12/07 11:15:37;;;;;;;10.30;1.90;;;5.70;99.90;;;;;;5061352;28;20475;-80
2022/12/07 11:18:36;;;;;;;9.93;2.33;;;5.20;99.90;;;;;;5033850;28;20079;-80
2022/12/07 11:21:16;;;;;;;6.40;2.42;;;5.30;99.90;;;;;;5046037;28;20485;-78
2022/12/07 11:23:51;;;;;;;43.70;26.77;;;5.30;99.90;;;;;;5037396;28;20047;-78
2022/12/07 11:26:29;;;;;;;20.75;15.57;;;5.30;99.90;;;;;;5062843;28;20388;-80
2022/12/07 11:29:13;;;;;;;12.38;7.22;;;5.30;99.90;;;;;;5045475;28;20041;-79
2022/12/07 11:32:13;;;;;;;8.90;3.20;;;5.30;99.90;;;;;;5034570;28;20037;-79
2022/12/07 11:34:47;;;;;;;9.23;3.08;;;5.40;99.90;;;;;;5050957;28;20082;-79
2022/12/07 11:37:19;;;;;;;6.38;1.67;;;5.40;99.90;;;;;;5067175;28;20037;-79
2022/12/07 11:39:54;;;;;;;7.75;1.73;;;5.40;99.90;;;;;;5046623;28;20049;-79
2022/12/07 11:42:27;;;;;;;6.03;1.60;;;5.50;99.90;;;;;;5037217;28;20492;-78
2022/12/07 11:44:59;;;;;;;8.02;1.38;;;5.60;99.90;;;;;;5030760;28;20041;-78
2022/12/07 11:47:28;;;;;;;;;;;5.50;99.90;;;;;;5038398;28;20063;-79
2022/12/07 11:50:36;;;;;;;8.30;1.67;;;6.70;99.90;;;;;;5051758;28;20221;-79
2022/12/07 11:53:08;;;;;;;6.35;1.52;;;5.60;99.90;;;;;;4997975;28;20071;-79
2022/12/07 11:55:40;;;;;;;;;;;5.60;99.90;;;;;;5038238;28;20499;-78
2022/12/07 11:58:44;;;;;;;8.93;3.00;;;5.60;99.90;;;;;;5049122;28;19966;-79
2022/12/07 12:01:28;;;;;;;11.68;2.25;;;5.60;99.90;;;;;;4988510;28;20053;-79
2022/12/07 12:04:08;;;;;;;8.15;1.70;;;5.50;99.90;;;;;;5050196;28;20056;-79
2022/12/07 12:06:37;;;;;;;9.07;2.70;;;5.50;99.90;;;;;;5067693;28;20064;-80
2022/12/07 12:09:10;;;;;;;8.00;2.10;;;5.60;99.90;;;;;;5034222;28;20037;-79
2022/12/07 12:11:47;;;;;;;7.20;1.77;;;5.60;99.90;;;;;;5033741;28;20055;-79
2022/12/07 12:14:24;;;;;;;9.88;2.20;;;6.20;99.90;;;;;;5061247;28;20044;-78
2022/12/07 12:17:09;;;;;;;8.57;1.85;;;7.00;99.90;;;;;;5039995;28;20068;-80
2022/12/07 12:20:02;;;;;;;7.65;1.90;;;5.80;99.90;;;;;;5043435;28;20040;-79
2022/12/07 12:22:41;;;;;;;11.48;2.00;;;6.00;99.90;;;;;;5061120;28;20068;-77
2022/12/07 12:25:25;;;;;;;6.88;1.55;;;6.00;99.90;;;;;;5074381;28;20432;-78
2022/12/07 12:27:55;;;;;;;11.25;1.60;;;6.20;99.90;;;;;;5042630;28;20050;-80
2022/12/07 12:30:40;;;;;;;7.93;1.60;;;6.60;99.90;;;;;;5059373;28;20108;-79
2022/12/07 12:33:27;;;;;;;10.73;1.70;;;7.40;99.90;;;;;;5031721;28;20523;-80
2022/12/07 12:36:32;;;;;;;6.47;1.88;;;8.20;99.90;;;;;;5042023;28;20081;-79
2022/12/07 12:38:58;;;;;;;10.45;2.03;;;6.90;99.90;;;;;;5007749;28;20060;-79
2022/12/07 12:42:05;;;;;;;7.63;1.70;;;6.90;99.90;;;;;;5032304;28;20125;-79
2022/12/07 12:44:28;;;;;;;7.32;1.40;;;7.70;99.90;;;;;;5061161;28;20048;-80
2022/12/07 12:46:58;;;;;;;7.50;1.77;;;6.60;99.90;;;;;;5039630;28;20128;-79
2022/12/07 12:49:24;;;;;;;7.63;1.70;;;7.30;99.90;;;;;;5037063;28;20567;-79
2022/12/07 12:51:59;;;;;;;8.95;2.00;;;8.30;99.90;;;;;;5042923;28;20052;-79
2022/12/07 12:54:29;;;;;;;8.27;1.73;;;7.90;99.90;;;;;;5058722;28;20116;-79
2022/12/07 12:57:07;;;;;;;11.60;1.60;;;6.80;99.90;;;;;;5031752;28;20091;-79
2022/12/07 12:59:39;;;;;;;12.30;1.70;;;6.70;99.90;;;;;;5063464;28;20097;-79
2022/12/07 13:02:25;;;;;;;8.45;1.52;;;6.60;99.90;;;;;;5034425;28;20493;-79
2022/12/07 13:05:12;;;;;;;6.88;1.30;;;6.60;99.90;;;;;;5019128;28;20040;-79
2022/12/07 13:08:16;;;;;;;5.78;1.38;;;7.50;99.90;;;;;;5030513;28;20090;-80
2022/12/07 13:10:46;;;;;;;9.27;1.58;;;6.40;99.90;;;;;;5035885;28;20032;-79
2022/12/07 13:13:14;;;;;;;7.00;1.50;;;7.00;99.90;;;;;;5032007;28;20079;-80
2022/12/07 13:15:43;;;;;;;5.28;1.48;;;7.50;99.90;;;;;;5052629;28;20044;-79
2022/12/07 13:18:35;;;;;;;6.70;1.50;;;6.40;99.90;;;;;;5047949;28;20036;-79
2022/12/07 13:21:07;;;;;;;6.95;1.55;;;7.70;99.90;;;;;;5030723;28;20048;-78
2022/12/07 13:23:45;;;;;;;9.70;1.63;;;6.20;99.90;;;;;;5065178;28;20059;-81
2022/12/07 13:26:30;;;;;;;9.30;2.10;;;5.10;99.90;;;;;;5051960;28;20041;-79
2022/12/07 13:29:13;;;;;;;11.60;1.40;;;6.20;99.90;;;;;;5073020;28;20079;-79
2022/12/07 13:31:45;;;;;;;11.32;1.77;;;6.90;99.90;;;;;;5034730;28;20052;-80
2022/12/07 13:34:31;;;;;;;11.80;1.60;;;6.30;99.90;;;;;;5046443;28;20037;-79
2022/12/07 13:36:59;;;;;;;4.38;1.60;;;6.40;99.90;;;;;;5028742;28;20117;-79
2022/12/07 13:39:26;;;;;;;14.13;3.00;;;6.80;99.90;;;;;;5033318;28;20040;-79
2022/12/07 13:41:56;;;;;;;9.65;4.53;;;6.50;99.90;;;;;;5042308;28;20036;-79